Time;durP1;ratioP1;P1;durP2;ratioP2;P2;SDS_P1;SDS_P2;PMS_P1;PMS_P2;Temp;Humidity;BMP_temperature;BMP_pressure;BME280_temperature;BME280_humidity;BME280_pressure;Samples;Min_cycle;Max_cycle;Signal;HPM_P1;HPM_P2
2022/03/04 00:02:12;;;;;;;27.03;13.20;;;5.60;57.30;;;;;;5000527;28;20079;-76
2022/03/04 00:04:38;;;;;;;24.87;12.67;;;5.50;57.70;;;;;;5000411;28;20033;-76
2022/03/04 00:07:04;;;;;;;24.77;13.30;;;5.50;57.70;;;;;;5033237;28;20049;-75
2022/03/04 00:09:31;;;;;;;25.97;13.73;;;5.40;58.10;;;;;;5016830;28;20025;-76
2022/03/04 00:11:57;;;;;;;31.20;13.97;;;5.40;58.20;;;;;;5033112;28;20108;-75
2022/03/04 00:14:24;;;;;;;25.60;13.70;;;5.40;58.20;;;;;;5016560;28;20029;-75
2022/03/04 00:16:51;;;;;;;26.33;14.33;;;5.30;58.20;;;;;;5016812;28;20025;-75
2022/03/04 00:19:17;;;;;;;24.17;13.10;;;5.30;58.40;;;;;;5033083;28;20044;-76
2022/03/04 00:21:48;;;;;;;29.47;14.63;;;5.20;58.40;;;;;;5016269;28;20033;-76
2022/03/04 00:24:15;;;;;;;30.87;14.07;;;5.20;59.50;;;;;;5033049;28;20013;-76
2022/03/04 00:26:41;;;;;;;27.07;13.67;;;5.30;59.90;;;;;;5016374;28;20074;-76
2022/03/04 00:29:07;;;;;;;26.43;14.27;;;5.20;59.10;;;;;;5032785;28;20108;-75
2022/03/04 00:31:34;;;;;;;26.73;14.83;;;5.10;59.40;;;;;;5016317;28;20033;-76
2022/03/04 00:34:00;;;;;;;23.77;13.13;;;5.10;59.70;;;;;;5032702;28;20026;-77
2022/03/04 00:36:27;;;;;;;22.57;12.83;;;5.10;59.80;;;;;;5000078;28;20103;-76
2022/03/04 00:38:55;;;;;;;26.07;13.17;;;5.00;59.80;;;;;;5032681;28;20409;-76
2022/03/04 00:41:22;;;;;;;24.03;11.93;;;5.00;59.80;;;;;;5032609;28;20109;-76
2022/03/04 00:43:49;;;;;;;23.77;13.30;;;5.10;59.70;;;;;;4989739;28;1260647;-75
2022/03/04 00:46:15;;;;;;;25.17;13.53;;;4.90;59.80;;;;;;5034841;28;20039;-76
2022/03/04 00:48:42;;;;;;;25.43;12.63;;;4.90;60.20;;;;;;5034658;28;20030;-76
2022/03/04 00:51:09;;;;;;;29.30;13.33;;;4.90;60.20;;;;;;5017504;28;20436;-75
2022/03/04 00:53:36;;;;;;;27.17;13.37;;;4.80;60.20;;;;;;5016848;28;20072;-76
2022/03/04 00:56:02;;;;;;;26.37;13.33;;;4.80;60.70;;;;;;5034626;28;20022;-76
2022/03/04 00:58:28;;;;;;;28.07;14.60;;;4.80;60.60;;;;;;5034490;28;20025;-75
2022/03/04 01:00:54;;;;;;;24.63;12.97;;;4.70;60.50;;;;;;5033597;28;20492;-76
2022/03/04 01:03:19;;;;;;;25.77;13.17;;;4.70;60.80;;;;;;5034332;28;20025;-75
2022/03/04 01:05:45;;;;;;;26.23;13.70;;;4.60;60.80;;;;;;5033053;28;20033;-75
2022/03/04 01:08:11;;;;;;;25.47;12.80;;;4.60;61.10;;;;;;5034346;28;20026;-75
2022/03/04 01:10:37;;;;;;;26.87;13.97;;;4.60;61.00;;;;;;5033143;28;20026;-75
2022/03/04 01:13:03;;;;;;;24.97;12.77;;;4.60;61.10;;;;;;5034252;28;20024;-76
2022/03/04 01:15:29;;;;;;;26.77;13.17;;;4.50;61.20;;;;;;5016499;28;20059;-76
2022/03/04 01:17:55;;;;;;;26.97;13.03;;;4.50;61.20;;;;;;5032678;28;20124;-76
2022/03/04 01:20:21;;;;;;;23.17;12.77;;;4.50;61.30;;;;;;5032888;28;20029;-76
2022/03/04 01:22:47;;;;;;;24.80;13.47;;;4.40;61.40;;;;;;5032899;28;20021;-76
2022/03/04 01:25:13;;;;;;;26.63;14.60;;;4.40;61.70;;;;;;5032891;28;20385;-75
2022/03/04 01:27:39;;;;;;;28.10;13.93;;;4.40;61.80;;;;;;4999943;28;20040;-76
2022/03/04 01:30:07;;;;;;;25.03;13.30;;;4.40;62.10;;;;;;5016425;28;20029;-76
2022/03/04 01:32:33;;;;;;;28.03;13.70;;;4.30;62.00;;;;;;5032479;28;20396;-75
2022/03/04 01:34:59;;;;;;;25.03;12.30;;;4.40;62.60;;;;;;5032592;28;20021;-75
2022/03/04 01:37:24;;;;;;;25.30;13.53;;;4.30;62.10;;;;;;5032569;28;20116;-75
2022/03/04 01:39:50;;;;;;;24.83;13.33;;;4.30;62.50;;;;;;5016064;28;20048;-75
2022/03/04 01:42:16;;;;;;;31.87;14.97;;;4.30;62.80;;;;;;5032385;28;20022;-76
2022/03/04 01:44:42;;;;;;;28.07;13.53;;;4.30;62.80;;;;;;5033423;28;20052;-76
2022/03/04 01:47:08;;;;;;;26.43;13.70;;;4.20;62.50;;;;;;5033663;28;20100;-75
2022/03/04 01:49:34;;;;;;;30.50;13.70;;;4.20;63.20;;;;;;5032328;28;20030;-76
2022/03/04 01:51:59;;;;;;;22.63;12.53;;;4.20;63.10;;;;;;5032403;28;20032;-75
2022/03/04 01:54:25;;;;;;;26.03;13.77;;;4.20;63.10;;;;;;5032178;28;20033;-75
2022/03/04 01:56:51;;;;;;;28.63;12.80;;;4.10;63.70;;;;;;5032453;28;20117;-76
2022/03/04 01:59:17;;;;;;;24.80;12.13;;;4.10;62.90;;;;;;5032240;28;20057;-75
2022/03/04 02:01:43;;;;;;;25.17;12.73;;;4.10;63.30;;;;;;5015740;28;20030;-76
2022/03/04 02:04:09;;;;;;;28.07;14.13;;;4.10;63.60;;;;;;5015843;28;20022;-75
2022/03/04 02:06:35;;;;;;;27.50;13.73;;;4.00;63.60;;;;;;5032074;28;20083;-75
2022/03/04 02:09:01;;;;;;;27.90;13.10;;;4.10;64.50;;;;;;5032274;28;20033;-75
2022/03/04 02:11:26;;;;;;;25.10;12.93;;;4.00;63.80;;;;;;5031921;28;20381;-76
2022/03/04 02:13:52;;;;;;;26.90;12.37;;;4.00;64.00;;;;;;5033243;28;20036;-76
2022/03/04 02:16:36;;;;;;;26.47;13.40;;;3.90;63.80;;;;;;5015799;28;20498;-75
2022/03/04 02:19:03;;;;;;;25.60;12.50;;;4.00;63.90;;;;;;5031953;28;20022;-75
2022/03/04 02:21:31;;;;;;;25.80;12.73;;;4.00;64.10;;;;;;5031841;28;20032;-76
2022/03/04 02:23:57;;;;;;;26.57;13.63;;;3.90;65.10;;;;;;5033130;28;20022;-76
2022/03/04 02:26:23;;;;;;;24.73;12.63;;;3.80;64.30;;;;;;5015443;28;20018;-75
2022/03/04 02:28:50;;;;;;;30.40;14.50;;;3.80;64.60;;;;;;4999042;28;20021;-75
2022/03/04 02:31:18;;;;;;;27.53;14.27;;;3.80;65.10;;;;;;5033136;28;20083;-75
2022/03/04 02:33:45;;;;;;;26.93;12.13;;;3.80;64.90;;;;;;5015445;28;20053;-75
2022/03/04 02:36:11;;;;;;;28.07;13.57;;;3.70;64.80;;;;;;5015496;28;20076;-75
2022/03/04 02:38:37;;;;;;;27.00;13.00;;;3.70;65.40;;;;;;5015636;28;20036;-75
2022/03/04 02:41:02;;;;;;;26.40;13.33;;;3.70;65.30;;;;;;5031665;28;20029;-76
2022/03/04 02:43:28;;;;;;;28.50;14.20;;;3.70;65.20;;;;;;5031795;28;20025;-75
2022/03/04 02:45:54;;;;;;;26.03;12.63;;;3.80;65.50;;;;;;4998765;28;20465;-75
2022/03/04 02:48:20;;;;;;;27.30;12.13;;;3.60;65.60;;;;;;5015210;28;20060;-76
2022/03/04 02:50:45;;;;;;;23.80;11.93;;;3.70;65.70;;;;;;5031629;28;20029;-76
2022/03/04 02:53:11;;;;;;;23.97;11.60;;;3.60;65.40;;;;;;5015208;28;20057;-76
2022/03/04 02:55:37;;;;;;;33.73;12.33;;;3.60;65.60;;;;;;5031469;28;20504;-75
2022/03/04 02:58:03;;;;;;;25.60;11.53;;;3.60;65.70;;;;;;4998912;28;20036;-75
2022/03/04 03:00:29;;;;;;;29.33;13.43;;;3.50;65.70;;;;;;5031442;28;20021;-75
2022/03/04 03:02:54;;;;;;;25.87;11.50;;;3.50;66.00;;;;;;5032820;28;20382;-76
2022/03/04 03:05:20;;;;;;;24.93;12.37;;;3.50;66.00;;;;;;5015083;28;20025;-75
2022/03/04 03:07:46;;;;;;;26.33;12.60;;;3.50;65.80;;;;;;5015042;28;20056;-75
2022/03/04 03:10:12;;;;;;;24.77;12.43;;;3.50;66.20;;;;;;5031492;28;20120;-75
2022/03/04 03:12:40;;;;;;;29.30;13.00;;;3.50;66.40;;;;;;5014957;28;20109;-75
2022/03/04 03:15:06;;;;;;;29.03;13.40;;;3.40;66.20;;;;;;5014968;28;20026;-75
2022/03/04 03:17:32;;;;;;;23.30;11.70;;;3.40;66.20;;;;;;5031447;28;20112;-75
2022/03/04 03:19:57;;;;;;;25.53;12.07;;;3.40;66.60;;;;;;5032579;28;20434;-76
2022/03/04 03:22:23;;;;;;;30.07;12.07;;;3.30;66.50;;;;;;5014844;28;20018;-75
2022/03/04 03:24:49;;;;;;;24.67;11.63;;;3.30;66.80;;;;;;5033636;28;20029;-76
2022/03/04 03:27:15;;;;;;;29.17;13.30;;;3.30;67.00;;;;;;5018651;28;20061;-75
2022/03/04 03:29:41;;;;;;;26.70;11.97;;;3.30;67.90;;;;;;5018432;28;20395;-76
2022/03/04 03:32:08;;;;;;;24.73;11.67;;;3.20;67.00;;;;;;5034998;28;20119;-75
2022/03/04 03:34:34;;;;;;;27.67;13.27;;;3.20;66.90;;;;;;5036091;28;20029;-75
2022/03/04 03:36:59;;;;;;;22.93;11.60;;;3.20;67.10;;;;;;5034986;28;20101;-76
2022/03/04 03:39:25;;;;;;;23.70;11.67;;;3.10;67.00;;;;;;5018295;28;20567;-75
2022/03/04 03:41:50;;;;;;;27.67;12.43;;;3.10;67.30;;;;;;5001937;28;20380;-75
2022/03/04 03:44:16;;;;;;;25.97;12.17;;;3.10;67.90;;;;;;5035839;28;20084;-76
2022/03/04 03:46:42;;;;;;;23.43;11.07;;;3.10;67.30;;;;;;5034718;28;20110;-75
2022/03/04 03:49:08;;;;;;;25.63;11.37;;;3.00;67.30;;;;;;5018047;28;20021;-75
2022/03/04 03:51:34;;;;;;;25.70;11.43;;;3.00;67.50;;;;;;5034617;28;20478;-75
2022/03/04 03:54:00;;;;;;;21.37;11.37;;;3.00;67.60;;;;;;5034375;28;20128;-76
2022/03/04 03:56:25;;;;;;;26.13;11.67;;;2.90;67.50;;;;;;5035656;28;20024;-75
2022/03/04 03:58:51;;;;;;;24.47;12.27;;;2.90;67.60;;;;;;5034561;28;20029;-76
2022/03/04 04:01:17;;;;;;;22.37;10.83;;;3.00;67.90;;;;;;5017760;28;20036;-76
2022/03/04 04:03:42;;;;;;;23.47;11.60;;;2.90;68.20;;;;;;5034679;28;20033;-76
2022/03/04 04:06:08;;;;;;;23.90;11.80;;;2.90;68.30;;;;;;5034296;28;20045;-75
2022/03/04 04:08:34;;;;;;;25.03;12.40;;;2.80;68.20;;;;;;5034182;28;20045;-75
2022/03/04 04:10:59;;;;;;;22.37;11.17;;;2.80;68.20;;;;;;5034099;28;20061;-75
2022/03/04 04:13:25;;;;;;;24.00;12.47;;;2.80;68.60;;;;;;5017720;28;20076;-75
2022/03/04 04:15:51;;;;;;;22.03;11.30;;;2.80;68.30;;;;;;5034199;28;20040;-75
2022/03/04 04:18:17;;;;;;;24.90;12.37;;;2.70;68.50;;;;;;5001347;28;20064;-75
2022/03/04 04:20:42;;;;;;;27.47;11.00;;;2.80;68.60;;;;;;5033938;28;20133;-75
2022/03/04 04:23:08;;;;;;;29.50;11.30;;;2.70;68.70;;;;;;5001157;28;20112;-75
2022/03/04 04:25:34;;;;;;;26.70;11.60;;;2.70;68.60;;;;;;5017426;28;20029;-75
2022/03/04 04:27:59;;;;;;;27.00;11.63;;;2.70;68.90;;;;;;5033697;28;20386;-76
2022/03/04 04:30:25;;;;;;;22.00;11.00;;;2.70;69.10;;;;;;5033847;28;20061;-75
2022/03/04 04:32:51;;;;;;;26.20;11.67;;;2.70;69.10;;;;;;5017422;28;20030;-76
2022/03/04 04:35:16;;;;;;;25.80;11.83;;;2.70;69.30;;;;;;5032675;28;20033;-75
2022/03/04 04:37:42;;;;;;;24.67;11.27;;;2.60;69.20;;;;;;5033660;28;20497;-76
2022/03/04 04:40:09;;;;;;;23.33;11.43;;;2.60;69.40;;;;;;5000747;28;20025;-75
2022/03/04 04:42:35;;;;;;;24.73;11.50;;;2.50;69.30;;;;;;5017280;28;20030;-75
2022/03/04 04:45:00;;;;;;;24.20;11.87;;;2.50;69.60;;;;;;5016866;28;20045;-75
2022/03/04 04:47:26;;;;;;;25.70;12.73;;;2.50;69.90;;;;;;5033700;28;20044;-75
2022/03/04 04:49:52;;;;;;;26.17;12.80;;;2.50;70.60;;;;;;5034720;28;20539;-76
2022/03/04 04:52:18;;;;;;;26.13;12.90;;;2.40;70.20;;;;;;5033482;28;20389;-75
2022/03/04 04:54:44;;;;;;;26.13;12.57;;;2.40;70.10;;;;;;5033342;28;20549;-75
2022/03/04 04:57:09;;;;;;;27.97;12.67;;;2.40;70.40;;;;;;5016961;28;20030;-75
2022/03/04 04:59:35;;;;;;;26.67;13.20;;;2.40;70.70;;;;;;5016684;28;20402;-76
2022/03/04 05:02:01;;;;;;;25.73;11.53;;;2.40;70.60;;;;;;5000357;28;20120;-75
2022/03/04 05:04:27;;;;;;;23.93;11.83;;;2.40;71.40;;;;;;5033144;28;20021;-75
2022/03/04 05:06:52;;;;;;;23.50;11.50;;;2.30;70.90;;;;;;5031926;28;20034;-75
2022/03/04 05:09:19;;;;;;;25.87;12.53;;;2.30;70.90;;;;;;5032203;28;20064;-75
2022/03/04 05:11:44;;;;;;;24.40;12.10;;;2.30;71.20;;;;;;5031346;28;20167;-76
2022/03/04 05:14:10;;;;;;;25.13;11.87;;;2.30;71.10;;;;;;5032331;28;20128;-75
2022/03/04 05:16:36;;;;;;;24.97;11.87;;;2.30;71.10;;;;;;5033974;28;20034;-75
2022/03/04 05:19:02;;;;;;;24.43;11.47;;;2.30;71.80;;;;;;5016041;28;20025;-75
2022/03/04 05:21:28;;;;;;;29.73;13.17;;;2.20;71.00;;;;;;5015716;28;20481;-76
2022/03/04 05:24:02;;;;;;;27.37;11.73;;;2.20;71.30;;;;;;5016265;28;20030;-75
2022/03/04 05:26:32;;;;;;;24.75;11.23;;;2.20;71.30;;;;;;5017295;28;20029;-75
2022/03/04 05:29:00;;;;;;;29.03;13.00;;;2.20;71.90;;;;;;5016941;28;20022;-75
2022/03/04 05:31:26;;;;;;;27.10;11.37;;;2.20;71.30;;;;;;5032604;28;20470;-75
2022/03/04 05:33:51;;;;;;;24.57;10.97;;;2.10;72.30;;;;;;5016031;28;20040;-75
2022/03/04 05:36:21;;;;;;;22.57;11.93;;;2.10;72.10;;;;;;5018209;28;20029;-76
2022/03/04 05:38:48;;;;;;;26.40;11.97;;;2.10;71.60;;;;;;5033383;28;20039;-75
2022/03/04 05:41:15;;;;;;;30.60;12.83;;;2.10;72.60;;;;;;5011706;28;20389;-76
2022/03/04 05:43:41;;;;;;;27.00;12.77;;;2.10;72.60;;;;;;5032210;28;20505;-76
2022/03/04 05:46:07;;;;;;;28.60;12.13;;;2.10;72.50;;;;;;5032979;28;20068;-75
2022/03/04 05:48:33;;;;;;;28.43;12.87;;;2.00;72.40;;;;;;5019449;28;20079;-75
2022/03/04 05:50:59;;;;;;;27.43;12.17;;;2.00;73.10;;;;;;5032127;28;20039;-75
2022/03/04 05:53:25;;;;;;;24.80;12.37;;;2.00;72.60;;;;;;5031116;28;20018;-76
2022/03/04 05:55:51;;;;;;;27.47;12.27;;;2.00;72.60;;;;;;5032576;28;20029;-75
2022/03/04 05:58:17;;;;;;;26.07;12.83;;;1.90;72.60;;;;;;5015709;28;20025;-75
2022/03/04 06:00:43;;;;;;;25.67;12.47;;;1.90;72.80;;;;;;5032139;28;20124;-76
2022/03/04 06:03:09;;;;;;;27.60;13.10;;;2.00;72.90;;;;;;5032026;28;20021;-76
2022/03/04 06:05:35;;;;;;;24.53;11.97;;;1.90;72.90;;;;;;5033414;28;20105;-76
2022/03/04 06:08:00;;;;;;;27.00;12.50;;;1.90;72.80;;;;;;5033532;28;20481;-76
2022/03/04 06:10:26;;;;;;;26.80;12.10;;;1.90;73.10;;;;;;5031958;28;20028;-75
2022/03/04 06:12:52;;;;;;;26.70;12.67;;;1.90;73.00;;;;;;5033428;28;20383;-76
2022/03/04 06:15:19;;;;;;;24.83;11.07;;;1.90;73.00;;;;;;5024125;28;20126;-75
2022/03/04 06:17:49;;;;;;;23.27;10.83;;;1.80;73.10;;;;;;5045446;28;20030;-76
2022/03/04 06:20:18;;;;;;;26.73;11.73;;;1.80;73.10;;;;;;5042128;28;20022;-76
2022/03/04 06:22:45;;;;;;;29.10;11.37;;;1.80;73.60;;;;;;5023488;28;20031;-75
2022/03/04 06:25:11;;;;;;;24.13;11.63;;;1.80;73.60;;;;;;5037282;28;20029;-75
2022/03/04 06:27:39;;;;;;;25.90;11.83;;;1.80;73.50;;;;;;5037132;28;20024;-76
2022/03/04 06:30:05;;;;;;;24.30;11.70;;;1.80;73.70;;;;;;5039736;28;20021;-75
2022/03/04 06:32:31;;;;;;;25.47;11.67;;;1.80;73.90;;;;;;5038927;28;20040;-76
2022/03/04 06:34:57;;;;;;;26.07;13.07;;;1.80;73.80;;;;;;5034685;28;20124;-76
2022/03/04 06:37:23;;;;;;;25.43;11.23;;;1.80;74.00;;;;;;5031917;28;20030;-76
2022/03/04 06:39:49;;;;;;;24.90;12.60;;;1.80;74.40;;;;;;5007676;28;20087;-76
2022/03/04 06:42:15;;;;;;;27.33;12.10;;;1.80;74.40;;;;;;5023613;28;20029;-76
2022/03/04 06:44:40;;;;;;;26.90;11.43;;;1.80;74.40;;;;;;5041039;28;20371;-76
2022/03/04 06:47:07;;;;;;;28.90;12.77;;;1.80;74.70;;;;;;5043731;28;20036;-75
2022/03/04 06:49:33;;;;;;;25.70;12.00;;;1.80;74.70;;;;;;5051635;28;20106;-75
2022/03/04 06:51:58;;;;;;;27.67;11.60;;;1.80;74.60;;;;;;5035003;28;20060;-75
2022/03/04 06:54:24;;;;;;;30.80;12.37;;;1.80;75.30;;;;;;5018267;28;20032;-74
2022/03/04 06:56:50;;;;;;;25.97;12.87;;;1.80;75.00;;;;;;5034899;28;20033;-75
2022/03/04 06:59:15;;;;;;;23.43;12.07;;;1.80;74.80;;;;;;5019914;28;20025;-74
2022/03/04 07:01:41;;;;;;;26.57;11.93;;;1.80;75.10;;;;;;5038633;28;20056;-74
2022/03/04 07:04:06;;;;;;;27.97;12.07;;;1.90;75.00;;;;;;5056455;28;20075;-74
2022/03/04 07:06:32;;;;;;;25.73;11.57;;;1.90;75.20;;;;;;5055270;28;20025;-74
2022/03/04 07:08:57;;;;;;;25.87;12.17;;;1.90;75.30;;;;;;5049587;28;20029;-74
2022/03/04 07:11:23;;;;;;;29.23;13.10;;;1.90;75.40;;;;;;5035376;28;20029;-74
2022/03/04 07:13:49;;;;;;;24.50;12.30;;;1.90;75.20;;;;;;5018634;28;20099;-74
2022/03/04 07:16:14;;;;;;;27.17;12.63;;;1.90;75.30;;;;;;5033895;28;20032;-74
2022/03/04 07:18:40;;;;;;;26.37;12.37;;;2.00;75.50;;;;;;5017008;28;20056;-74
2022/03/04 07:21:06;;;;;;;25.30;12.80;;;2.00;75.50;;;;;;5018629;28;20549;-75
2022/03/04 07:23:31;;;;;;;25.67;12.50;;;2.00;75.30;;;;;;5018567;28;20026;-74
2022/03/04 07:25:57;;;;;;;26.57;12.53;;;2.00;75.50;;;;;;5018913;28;20485;-74
2022/03/04 07:28:22;;;;;;;24.43;11.67;;;2.10;75.70;;;;;;5018504;28;20390;-74
2022/03/04 07:30:48;;;;;;;28.10;13.77;;;2.10;75.80;;;;;;5018244;28;20271;-74
2022/03/04 07:33:14;;;;;;;27.97;13.53;;;2.10;75.90;;;;;;5034842;28;20030;-74
2022/03/04 07:35:44;;;;;;;30.47;14.23;;;2.20;76.20;;;;;;5018209;28;20057;-75
2022/03/04 07:38:14;;;;;;;28.23;13.73;;;2.20;76.30;;;;;;5018906;28;20079;-74
2022/03/04 07:40:40;;;;;;;27.47;13.50;;;2.20;76.20;;;;;;5034577;28;20041;-75
2022/03/04 07:43:05;;;;;;;27.40;13.57;;;2.30;76.10;;;;;;5034479;28;20034;-75
2022/03/04 07:45:31;;;;;;;27.07;13.23;;;2.40;76.10;;;;;;5034390;28;20052;-74
2022/03/04 07:47:57;;;;;;;23.83;12.30;;;2.30;75.90;;;;;;5034611;28;20088;-74
2022/03/04 07:50:23;;;;;;;27.10;12.83;;;2.40;76.60;;;;;;5018164;28;20394;-74
2022/03/04 07:52:49;;;;;;;27.57;12.00;;;2.40;76.40;;;;;;5034582;28;20045;-75
2022/03/04 07:55:16;;;;;;;29.33;14.33;;;2.40;76.30;;;;;;5034468;28;20533;-75
2022/03/04 07:57:42;;;;;;;27.17;12.73;;;2.50;76.60;;;;;;5034342;28;20028;-74
2022/03/04 08:00:11;;;;;;;32.13;14.43;;;2.60;76.60;;;;;;5018036;28;20392;-75
2022/03/04 08:02:38;;;;;;;29.27;12.43;;;2.60;76.60;;;;;;5034388;28;20143;-74
2022/03/04 08:05:04;;;;;;;27.80;13.93;;;2.60;76.60;;;;;;5018263;28;20022;-75
2022/03/04 08:07:30;;;;;;;30.53;14.43;;;2.60;76.50;;;;;;5017898;28;20029;-75
2022/03/04 08:09:55;;;;;;;29.97;14.07;;;2.60;76.60;;;;;;5034026;28;20542;-75
2022/03/04 08:12:22;;;;;;;30.97;14.33;;;2.70;76.40;;;;;;5017665;28;20048;-75
2022/03/04 08:14:48;;;;;;;26.73;13.63;;;2.70;76.50;;;;;;5017679;28;20382;-75
2022/03/04 08:17:14;;;;;;;29.73;13.90;;;2.70;76.70;;;;;;5001020;28;20028;-75
2022/03/04 08:19:39;;;;;;;30.17;14.67;;;2.80;76.60;;;;;;5017549;28;20025;-75
2022/03/04 08:22:05;;;;;;;29.53;15.00;;;2.80;76.60;;;;;;5001234;28;20033;-75
2022/03/04 08:24:31;;;;;;;30.73;15.63;;;2.90;76.80;;;;;;5017544;28;20029;-75
2022/03/04 08:26:57;;;;;;;30.53;15.23;;;2.90;77.20;;;;;;5017412;28;20141;-74
2022/03/04 08:29:23;;;;;;;29.20;14.20;;;3.00;77.00;;;;;;5033783;28;20036;-74
2022/03/04 08:31:49;;;;;;;31.67;16.10;;;3.00;77.70;;;;;;5033761;28;20028;-75
2022/03/04 08:34:15;;;;;;;31.77;14.33;;;3.10;77.30;;;;;;5017231;28;20441;-75
2022/03/04 08:36:40;;;;;;;30.63;15.03;;;3.10;76.80;;;;;;5000924;28;20112;-74
2022/03/04 08:39:06;;;;;;;29.60;15.27;;;3.30;76.90;;;;;;5033793;28;20553;-74
2022/03/04 08:41:35;;;;;;;31.27;15.97;;;3.30;76.60;;;;;;5034564;28;20192;-75
2022/03/04 08:44:01;;;;;;;32.53;15.30;;;3.30;76.80;;;;;;5033570;28;20026;-74
2022/03/04 08:46:27;;;;;;;29.40;14.30;;;3.30;76.50;;;;;;5016897;28;20516;-74
2022/03/04 08:48:53;;;;;;;31.03;14.67;;;3.30;76.40;;;;;;5034629;28;20060;-74
2022/03/04 08:51:24;;;;;;;33.93;15.50;;;3.40;76.60;;;;;;5000627;28;20431;-74
2022/03/04 08:53:51;;;;;;;35.00;14.77;;;3.50;77.00;;;;;;5017591;28;20078;-74
2022/03/04 08:56:16;;;;;;;31.43;14.90;;;3.50;76.50;;;;;;5016763;28;20053;-75
2022/03/04 08:58:42;;;;;;;31.77;15.77;;;3.60;76.40;;;;;;5033278;28;20647;-74
2022/03/04 09:01:07;;;;;;;43.90;16.27;;;3.60;76.40;;;;;;5016656;28;20171;-74
2022/03/04 09:03:33;;;;;;;31.47;15.63;;;3.70;76.60;;;;;;5016794;28;20036;-74
2022/03/04 09:05:59;;;;;;;31.20;15.73;;;3.80;76.50;;;;;;5033085;28;20032;-74
2022/03/04 09:08:24;;;;;;;30.53;16.20;;;3.90;76.80;;;;;;5016695;28;20504;-75
2022/03/04 09:10:50;;;;;;;31.60;15.43;;;3.90;76.10;;;;;;5033000;28;20188;-74
2022/03/04 09:13:16;;;;;;;31.03;15.13;;;3.90;76.10;;;;;;5016584;28;20025;-75
2022/03/04 09:15:41;;;;;;;27.20;14.53;;;4.00;76.00;;;;;;5033105;28;20548;-74
2022/03/04 09:18:08;;;;;;;31.80;15.40;;;4.10;76.00;;;;;;5000110;28;20061;-74
2022/03/04 09:20:34;;;;;;;29.10;15.37;;;4.20;75.90;;;;;;5032665;28;20032;-74
2022/03/04 09:22:59;;;;;;;30.60;14.87;;;4.30;75.70;;;;;;4999531;28;20018;-75
2022/03/04 09:25:27;;;;;;;34.50;15.67;;;4.30;75.60;;;;;;5016359;28;20437;-74
2022/03/04 09:27:53;;;;;;;27.23;13.63;;;4.40;75.50;;;;;;5016577;28;20370;-74
2022/03/04 09:30:19;;;;;;;26.60;14.50;;;4.50;75.60;;;;;;5033940;28;20104;-74
2022/03/04 09:32:45;;;;;;;27.97;14.27;;;4.60;75.60;;;;;;5032719;28;20116;-75
2022/03/04 09:35:11;;;;;;;27.67;14.27;;;4.70;75.50;;;;;;5033805;28;20105;-74
2022/03/04 09:37:36;;;;;;;30.50;15.17;;;4.70;75.20;;;;;;5032525;28;20104;-74
2022/03/04 09:40:07;;;;;;;27.63;14.87;;;4.80;76.00;;;;;;5032601;28;20037;-76
2022/03/04 09:42:33;;;;;;;30.73;15.43;;;4.90;75.10;;;;;;5016204;28;20052;-76
2022/03/04 09:45:00;;;;;;;30.50;15.27;;;4.90;74.70;;;;;;5015894;28;20387;-76
2022/03/04 09:47:27;;;;;;;31.10;15.70;;;5.00;74.90;;;;;;5032378;28;20017;-76
2022/03/04 09:49:54;;;;;;;31.33;16.30;;;5.10;74.80;;;;;;5032242;28;20057;-76
2022/03/04 09:52:20;;;;;;;31.40;16.37;;;5.10;74.70;;;;;;5033606;28;20025;-76
2022/03/04 09:54:50;;;;;;;27.13;15.40;;;5.30;74.50;;;;;;5016123;28;20064;-76
2022/03/04 09:57:17;;;;;;;29.03;14.90;;;5.30;74.30;;;;;;5033573;28;20026;-76
2022/03/04 09:59:44;;;;;;;28.43;15.33;;;5.40;74.20;;;;;;5033442;28;20029;-75
2022/03/04 10:02:12;;;;;;;29.30;15.20;;;5.50;74.20;;;;;;5015998;28;20026;-76
2022/03/04 10:04:38;;;;;;;33.50;16.10;;;5.70;74.10;;;;;;5033321;28;20101;-76
2022/03/04 10:07:17;;;;;;;30.40;14.97;;;6.00;73.80;;;;;;5032068;28;20044;-75
2022/03/04 10:09:45;;;;;;;27.43;14.73;;;6.30;73.60;;;;;;5032035;28;20064;-76
2022/03/04 10:12:12;;;;;;;26.57;14.47;;;6.70;73.70;;;;;;5031965;28;20028;-76
2022/03/04 10:15:01;;;;;;;25.10;15.07;;;7.30;74.00;;;;;;5031999;28;20029;-76
2022/03/04 10:17:27;;;;;;;25.03;13.60;;;7.90;73.50;;;;;;5031833;28;20390;-76
2022/03/04 10:19:59;;;;;;;21.33;12.30;;;8.70;73.90;;;;;;4999241;28;20564;-76
2022/03/04 10:22:42;;;;;;;22.25;13.45;;;9.50;73.80;;;;;;5031922;28;20022;-74
2022/03/04 10:25:25;;;;;;;19.52;11.60;;;10.50;72.50;;;;;;5033080;28;20059;-74
2022/03/04 10:27:51;;;;;;;17.55;10.13;;;11.50;71.50;;;;;;5031757;28;20386;-77
2022/03/04 10:30:28;;;;;;;17.77;10.85;;;12.40;71.50;;;;;;5031760;28;20034;-77
2022/03/04 10:33:08;;;;;;;16.27;10.35;;;13.30;69.60;;;;;;5034134;28;20513;-75
2022/03/04 10:35:35;;;;;;;14.88;9.50;;;14.30;67.20;;;;;;5035859;28;20033;-75
2022/03/04 10:38:02;;;;;;;15.60;10.20;;;15.10;66.40;;;;;;5037251;28;20087;-74
2022/03/04 10:40:30;;;;;;;16.23;11.50;;;15.90;64.30;;;;;;5019981;28;20516;-75
2022/03/04 10:42:59;;;;;;;15.43;9.32;;;16.60;60.60;;;;;;5035826;28;20021;-75
2022/03/04 10:45:25;;;;;;;12.98;9.65;;;17.30;58.30;;;;;;5019284;28;20115;-74
2022/03/04 10:47:53;;;;;;;13.70;10.02;;;17.90;56.30;;;;;;5035693;28;20478;-75
2022/03/04 10:50:28;;;;;;;15.60;10.23;;;18.50;54.10;;;;;;5036924;28;20032;-75
2022/03/04 10:52:57;;;;;;;14.63;11.32;;;19.10;51.90;;;;;;5035434;28;20026;-74
2022/03/04 10:55:27;;;;;;;14.02;10.82;;;19.60;50.20;;;;;;5035602;28;20109;-74
2022/03/04 10:57:53;;;;;;;12.40;9.50;;;20.00;48.40;;;;;;5036743;28;20156;-75
2022/03/04 11:00:34;;;;;;;14.20;10.23;;;20.30;47.50;;;;;;5035337;28;20038;-75
2022/03/04 11:03:00;;;;;;;13.43;10.27;;;20.60;45.70;;;;;;5035487;28;20025;-74
2022/03/04 11:05:26;;;;;;;13.82;10.02;;;21.00;45.50;;;;;;5002649;28;20474;-74
2022/03/04 11:07:53;;;;;;;12.43;9.80;;;21.50;44.70;;;;;;5019028;28;20112;-74
2022/03/04 11:10:20;;;;;;;14.95;11.20;;;21.80;43.70;;;;;;5035133;28;20473;-74
2022/03/04 11:12:46;;;;;;;14.30;11.10;;;22.20;42.10;;;;;;5035350;28;20029;-75
2022/03/04 11:15:13;;;;;;;13.63;10.80;;;22.50;41.20;;;;;;5002639;28;20029;-75
2022/03/04 11:17:39;;;;;;;13.43;10.10;;;22.80;40.50;;;;;;5018676;28;20028;-74
2022/03/04 11:20:07;;;;;;;13.27;9.98;;;23.00;40.70;;;;;;5035133;28;20074;-75
2022/03/04 11:22:33;;;;;;;16.27;10.52;;;23.20;39.00;;;;;;5035107;28;20033;-77
2022/03/04 11:25:11;;;;;;;14.52;10.30;;;23.50;38.20;;;;;;5035102;28;20033;-74
2022/03/04 11:27:45;;;;;;;15.60;11.32;;;23.70;37.10;;;;;;5019278;28;20025;-74
2022/03/04 11:30:37;;;;;;;12.80;10.38;;;23.90;36.70;;;;;;5035121;28;20362;-74
2022/03/04 11:33:10;;;;;;;15.75;10.68;;;24.20;36.00;;;;;;5034738;28;20112;-77
2022/03/04 11:35:42;;;;;;;13.57;10.93;;;24.40;35.80;;;;;;5034766;28;20481;-77
2022/03/04 11:38:12;;;;;;;13.90;11.45;;;24.50;35.20;;;;;;5034854;28;20072;-77
2022/03/04 11:40:48;;;;;;;11.73;10.30;;;24.60;34.70;;;;;;5018059;28;20026;-77
2022/03/04 11:43:18;;;;;;;14.35;11.38;;;25.00;34.50;;;;;;5019786;28;20033;-77
2022/03/04 11:46:01;;;;;;;12.18;9.80;;;25.10;34.00;;;;;;5035152;28;20049;-74
2022/03/04 11:48:28;;;;;;;14.20;11.93;;;25.20;33.90;;;;;;5035853;28;20017;-76
2022/03/04 11:50:55;;;;;;;12.60;9.60;;;25.20;33.50;;;;;;5013683;28;20056;-77
2022/03/04 11:53:23;;;;;;;13.82;10.43;;;25.30;33.30;;;;;;5034595;28;20071;-78
2022/03/04 11:56:14;;;;;;;14.23;10.35;;;25.50;33.20;;;;;;5047040;28;20095;-75
2022/03/04 11:58:58;;;;;;;12.40;9.85;;;25.90;32.10;;;;;;5046626;28;20041;-79
2022/03/04 12:01:28;;;;;;;14.00;9.90;;;26.20;31.90;;;;;;5053649;28;20389;-74
2022/03/04 12:04:12;;;;;;;13.02;10.93;;;26.30;31.80;;;;;;5049827;28;20029;-77
2022/03/04 12:06:38;;;;;;;11.45;9.18;;;26.30;30.90;;;;;;5055028;28;20427;-77
2022/03/04 12:09:30;;;;;;;14.57;10.18;;;26.30;31.40;;;;;;5036731;28;20021;-75
2022/03/04 12:12:14;;;;;;;12.18;9.95;;;26.50;30.80;;;;;;5053487;28;20393;-76
2022/03/04 12:14:46;;;;;;;12.55;10.68;;;26.70;30.40;;;;;;5049986;28;20044;-75
2022/03/04 12:17:12;;;;;;;13.10;11.10;;;26.80;30.30;;;;;;5051220;28;20029;-75
2022/03/04 12:19:38;;;;;;;12.30;9.60;;;26.90;30.30;;;;;;5046724;28;20318;-75
2022/03/04 12:22:06;;;;;;;12.77;11.05;;;27.00;30.30;;;;;;5035243;28;20071;-75
2022/03/04 12:24:34;;;;;;;13.13;10.05;;;27.20;30.20;;;;;;5033853;28;20120;-74
2022/03/04 12:27:01;;;;;;;13.25;10.15;;;27.50;30.00;;;;;;5053312;28;20032;-75
2022/03/04 12:29:47;;;;;;;12.02;9.95;;;27.70;29.80;;;;;;5014390;28;20370;-75
2022/03/04 12:32:13;;;;;;;10.95;9.35;;;27.90;29.10;;;;;;5046959;28;20500;-75
2022/03/04 12:34:52;;;;;;;12.70;11.02;;;27.90;29.20;;;;;;5046054;28;20037;-75
2022/03/04 12:37:18;;;;;;;13.52;9.70;;;28.00;28.90;;;;;;5047353;28;20026;-75